sensor_id;sensor_type;location;lat;lon;timestamp;temperature;humidity
45066;DHT22;30830;53.704;10.004;2023-06-22T00:01:18;17.10;99.90
45066;DHT22;30830;53.704;10.004;2023-06-22T00:03:43;17.00;99.90
45066;DHT22;30830;53.704;10.004;2023-06-22T00:06:09;17.00;99.90
45066;DHT22;30830;53.704;10.004;2023-06-22T00:08:34;17.00;99.90
45066;DHT22;30830;53.704;10.004;2023-06-22T00:11:00;17.00;99.90
45066;DHT22;30830;53.704;10.004;2023-06-22T00:13:26;16.90;99.90
45066;DHT22;30830;53.704;10.004;2023-06-22T00:15:51;17.00;99.90
45066;DHT22;30830;53.704;10.004;2023-06-22T00:18:17;17.00;99.90
45066;DHT22;30830;53.704;10.004;2023-06-22T00:20:42;16.90;99.90
45066;DHT22;30830;53.704;10.004;2023-06-22T00:23:08;16.90;99.90
45066;DHT22;30830;53.704;10.004;2023-06-22T00:25:38;16.90;99.90
45066;DHT22;30830;53.704;10.004;2023-06-22T00:28:05;16.80;99.90
45066;DHT22;30830;53.704;10.004;2023-06-22T00:30:32;16.80;99.90
45066;DHT22;30830;53.704;10.004;2023-06-22T00:32:58;16.80;99.90
45066;DHT22;30830;53.704;10.004;2023-06-22T00:35:24;16.80;99.90
45066;DHT22;30830;53.704;10.004;2023-06-22T00:37:55;16.80;99.90
45066;DHT22;30830;53.704;10.004;2023-06-22T00:40:29;16.70;99.90
45066;DHT22;30830;53.704;10.004;2023-06-22T00:42:55;16.70;99.90
45066;DHT22;30830;53.704;10.004;2023-06-22T00:45:22;16.70;99.90
45066;DHT22;30830;53.704;10.004;2023-06-22T00:47:52;16.70;99.90
45066;DHT22;30830;53.704;10.004;2023-06-22T00:50:20;16.70;99.90
45066;DHT22;30830;53.704;10.004;2023-06-22T00:52:57;16.70;99.90
45066;DHT22;30830;53.704;10.004;2023-06-22T00:55:24;16.70;99.90
45066;DHT22;30830;53.704;10.004;2023-06-22T00:57:52;16.70;99.90
45066;DHT22;30830;53.704;10.004;2023-06-22T01:00:22;16.70;99.90
45066;DHT22;30830;53.704;10.004;2023-06-22T01:02:47;16.70;99.90
45066;DHT22;30830;53.704;10.004;2023-06-22T01:05:19;16.60;99.90
45066;DHT22;30830;53.704;10.004;2023-06-22T01:13:15;16.60;99.90
45066;DHT22;30830;53.704;10.004;2023-06-22T01:15:55;16.60;99.90
45066;DHT22;30830;53.704;10.004;2023-06-22T01:18:22;16.60;99.90
45066;DHT22;30830;53.704;10.004;2023-06-22T01:20:52;16.60;99.90
45066;DHT22;30830;53.704;10.004;2023-06-22T01:29:12;16.60;99.90
45066;DHT22;30830;53.704;10.004;2023-06-22T01:31:40;16.60;99.90
45066;DHT22;30830;53.704;10.004;2023-06-22T01:34:08;16.60;99.90
45066;DHT22;30830;53.704;10.004;2023-06-22T01:36:35;16.60;99.90
45066;DHT22;30830;53.704;10.004;2023-06-22T01:39:02;16.60;99.90
45066;DHT22;30830;53.704;10.004;2023-06-22T01:41:34;16.60;99.90
45066;DHT22;30830;53.704;10.004;2023-06-22T01:44:01;16.50;99.90
45066;DHT22;30830;53.704;10.004;2023-06-22T01:46:27;16.50;99.90
45066;DHT22;30830;53.704;10.004;2023-06-22T01:48:53;16.50;99.90
45066;DHT22;30830;53.704;10.004;2023-06-22T01:51:19;16.50;99.90
45066;DHT22;30830;53.704;10.004;2023-06-22T01:53:44;16.50;99.90
45066;DHT22;30830;53.704;10.004;2023-06-22T01:56:11;16.50;99.90
45066;DHT22;30830;53.704;10.004;2023-06-22T01:58:42;16.50;99.90
45066;DHT22;30830;53.704;10.004;2023-06-22T02:01:11;16.40;99.90
45066;DHT22;30830;53.704;10.004;2023-06-22T02:03:41;16.50;99.90
45066;DHT22;30830;53.704;10.004;2023-06-22T02:06:16;16.50;99.90
45066;DHT22;30830;53.704;10.004;2023-06-22T02:08:51;16.40;99.90
45066;DHT22;30830;53.704;10.004;2023-06-22T02:11:20;16.40;99.90
45066;DHT22;30830;53.704;10.004;2023-06-22T02:13:47;16.40;99.90
45066;DHT22;30830;53.704;10.004;2023-06-22T02:16:14;16.40;99.90
45066;DHT22;30830;53.704;10.004;2023-06-22T02:18:51;16.40;99.90
45066;DHT22;30830;53.704;10.004;2023-06-22T02:21:18;16.40;99.90
45066;DHT22;30830;53.704;10.004;2023-06-22T02:23:43;16.40;99.90
45066;DHT22;30830;53.704;10.004;2023-06-22T02:26:09;16.40;99.90
45066;DHT22;30830;53.704;10.004;2023-06-22T02:28:35;16.30;99.90
45066;DHT22;30830;53.704;10.004;2023-06-22T02:31:00;16.40;99.90
45066;DHT22;30830;53.704;10.004;2023-06-22T02:33:26;16.40;99.90
45066;DHT22;30830;53.704;10.004;2023-06-22T02:35:52;16.40;99.90
45066;DHT22;30830;53.704;10.004;2023-06-22T02:38:18;16.40;99.90
45066;DHT22;30830;53.704;10.004;2023-06-22T02:40:44;16.40;99.90
45066;DHT22;30830;53.704;10.004;2023-06-22T02:43:10;16.40;99.90
45066;DHT22;30830;53.704;10.004;2023-06-22T02:45:36;16.40;99.90
45066;DHT22;30830;53.704;10.004;2023-06-22T02:48:01;16.40;99.90
45066;DHT22;30830;53.704;10.004;2023-06-22T02:50:27;16.40;99.90
45066;DHT22;30830;53.704;10.004;2023-06-22T02:52:52;16.40;99.90
45066;DHT22;30830;53.704;10.004;2023-06-22T02:55:18;16.40;99.90
45066;DHT22;30830;53.704;10.004;2023-06-22T02:57:43;16.40;99.90
45066;DHT22;30830;53.704;10.004;2023-06-22T03:00:10;16.40;99.90
45066;DHT22;30830;53.704;10.004;2023-06-22T03:02:46;16.30;99.90
45066;DHT22;30830;53.704;10.004;2023-06-22T03:05:12;16.30;99.90
45066;DHT22;30830;53.704;10.004;2023-06-22T03:07:42;16.30;99.90
45066;DHT22;30830;53.704;10.004;2023-06-22T03:10:12;16.30;99.90
45066;DHT22;30830;53.704;10.004;2023-06-22T03:12:38;16.30;99.90
45066;DHT22;30830;53.704;10.004;2023-06-22T03:15:06;16.20;99.90
45066;DHT22;30830;53.704;10.004;2023-06-22T03:17:32;16.20;99.90
45066;DHT22;30830;53.704;10.004;2023-06-22T03:19:57;16.20;99.90
45066;DHT22;30830;53.704;10.004;2023-06-22T03:22:23;16.20;99.90
45066;DHT22;30830;53.704;10.004;2023-06-22T03:24:48;16.20;99.90
45066;DHT22;30830;53.704;10.004;2023-06-22T03:27:14;16.20;99.90
45066;DHT22;30830;53.704;10.004;2023-06-22T03:29:39;16.20;99.90
45066;DHT22;30830;53.704;10.004;2023-06-22T03:32:05;16.20;99.90
45066;DHT22;30830;53.704;10.004;2023-06-22T03:34:31;16.20;99.90
45066;DHT22;30830;53.704;10.004;2023-06-22T03:36:59;16.20;99.90
45066;DHT22;30830;53.704;10.004;2023-06-22T03:39:25;16.20;99.90
45066;DHT22;30830;53.704;10.004;2023-06-22T03:41:50;16.20;99.90
45066;DHT22;30830;53.704;10.004;2023-06-22T03:44:16;16.20;99.90
45066;DHT22;30830;53.704;10.004;2023-06-22T03:46:41;16.20;99.90
45066;DHT22;30830;53.704;10.004;2023-06-22T03:49:07;16.20;99.90
45066;DHT22;30830;53.704;10.004;2023-06-22T03:51:33;16.30;99.90
45066;DHT22;30830;53.704;10.004;2023-06-22T03:53:58;16.20;99.90
45066;DHT22;30830;53.704;10.004;2023-06-22T03:56:24;16.30;99.90
45066;DHT22;30830;53.704;10.004;2023-06-22T03:58:49;16.30;99.90
45066;DHT22;30830;53.704;10.004;2023-06-22T04:01:15;16.40;99.90
45066;DHT22;30830;53.704;10.004;2023-06-22T04:03:42;16.40;99.90
45066;DHT22;30830;53.704;10.004;2023-06-22T04:06:08;16.40;99.90
45066;DHT22;30830;53.704;10.004;2023-06-22T04:08:33;16.50;99.90
45066;DHT22;30830;53.704;10.004;2023-06-22T04:10:59;16.50;99.90
45066;DHT22;30830;53.704;10.004;2023-06-22T04:13:24;16.60;99.90
45066;DHT22;30830;53.704;10.004;2023-06-22T04:15:50;16.60;99.90
45066;DHT22;30830;53.704;10.004;2023-06-22T04:18:15;16.70;99.90
45066;DHT22;30830;53.704;10.004;2023-06-22T04:20:41;16.80;99.90
45066;DHT22;30830;53.704;10.004;2023-06-22T04:23:07;16.80;99.90
45066;DHT22;30830;53.704;10.004;2023-06-22T04:25:32;16.90;99.90
45066;DHT22;30830;53.704;10.004;2023-06-22T04:27:58;16.90;99.90
45066;DHT22;30830;53.704;10.004;2023-06-22T04:30:23;16.90;99.90
45066;DHT22;30830;53.704;10.004;2023-06-22T04:32:49;17.00;99.90
45066;DHT22;30830;53.704;10.004;2023-06-22T04:35:22;17.00;99.90
45066;DHT22;30830;53.704;10.004;2023-06-22T04:37:48;17.10;99.90
45066;DHT22;30830;53.704;10.004;2023-06-22T04:40:15;17.10;99.90
45066;DHT22;30830;53.704;10.004;2023-06-22T04:42:41;17.10;99.90
45066;DHT22;30830;53.704;10.004;2023-06-22T04:45:19;17.20;99.90
45066;DHT22;30830;53.704;10.004;2023-06-22T04:47:45;17.20;99.90
45066;DHT22;30830;53.704;10.004;2023-06-22T04:50:14;17.30;99.90
45066;DHT22;30830;53.704;10.004;2023-06-22T04:52:40;17.30;99.90
45066;DHT22;30830;53.704;10.004;2023-06-22T04:55:06;17.40;99.90
45066;DHT22;30830;53.704;10.004;2023-06-22T04:57:31;17.40;99.90
45066;DHT22;30830;53.704;10.004;2023-06-22T05:00:01;17.50;99.90
45066;DHT22;30830;53.704;10.004;2023-06-22T05:02:27;17.50;99.90
45066;DHT22;30830;53.704;10.004;2023-06-22T05:04:58;17.60;99.90
45066;DHT22;30830;53.704;10.004;2023-06-22T05:07:25;17.60;99.90
45066;DHT22;30830;53.704;10.004;2023-06-22T05:09:50;17.70;99.90
45066;DHT22;30830;53.704;10.004;2023-06-22T05:12:16;17.70;99.90
45066;DHT22;30830;53.704;10.004;2023-06-22T05:14:41;17.80;99.90
45066;DHT22;30830;53.704;10.004;2023-06-22T05:17:07;17.80;99.90
45066;DHT22;30830;53.704;10.004;2023-06-22T05:19:38;17.90;99.90
45066;DHT22;30830;53.704;10.004;2023-06-22T05:22:04;17.90;99.90
45066;DHT22;30830;53.704;10.004;2023-06-22T05:24:31;17.90;99.90
45066;DHT22;30830;53.704;10.004;2023-06-22T05:26:57;18.00;99.90
45066;DHT22;30830;53.704;10.004;2023-06-22T05:29:22;18.10;99.90
45066;DHT22;30830;53.704;10.004;2023-06-22T05:31:49;18.10;99.90
45066;DHT22;30830;53.704;10.004;2023-06-22T05:34:14;18.20;99.90
45066;DHT22;30830;53.704;10.004;2023-06-22T05:36:40;18.20;99.90
45066;DHT22;30830;53.704;10.004;2023-06-22T05:39:13;18.30;99.90
45066;DHT22;30830;53.704;10.004;2023-06-22T05:41:39;18.40;99.90
45066;DHT22;30830;53.704;10.004;2023-06-22T05:44:04;18.50;99.90
45066;DHT22;30830;53.704;10.004;2023-06-22T05:46:30;18.50;99.90
45066;DHT22;30830;53.704;10.004;2023-06-22T05:48:55;18.60;99.90
45066;DHT22;30830;53.704;10.004;2023-06-22T05:51:21;18.70;99.90
45066;DHT22;30830;53.704;10.004;2023-06-22T05:53:46;18.90;99.90
45066;DHT22;30830;53.704;10.004;2023-06-22T05:56:15;18.90;99.90
45066;DHT22;30830;53.704;10.004;2023-06-22T05:58:41;18.90;99.90
45066;DHT22;30830;53.704;10.004;2023-06-22T06:01:06;18.90;99.90
45066;DHT22;30830;53.704;10.004;2023-06-22T06:03:32;18.90;99.90
45066;DHT22;30830;53.704;10.004;2023-06-22T06:05:57;19.10;99.90
45066;DHT22;30830;53.704;10.004;2023-06-22T06:08:23;19.30;99.90
45066;DHT22;30830;53.704;10.004;2023-06-22T06:10:48;19.30;99.90
45066;DHT22;30830;53.704;10.004;2023-06-22T06:13:14;19.40;99.90
45066;DHT22;30830;53.704;10.004;2023-06-22T06:15:40;19.60;99.90
45066;DHT22;30830;53.704;10.004;2023-06-22T06:18:05;19.70;99.90
45066;DHT22;30830;53.704;10.004;2023-06-22T06:20:32;19.70;99.90
45066;DHT22;30830;53.704;10.004;2023-06-22T06:22:58;19.80;99.90
45066;DHT22;30830;53.704;10.004;2023-06-22T06:25:23;19.80;99.90
45066;DHT22;30830;53.704;10.004;2023-06-22T06:27:50;19.90;99.90
45066;DHT22;30830;53.704;10.004;2023-06-22T06:30:19;20.00;99.90
45066;DHT22;30830;53.704;10.004;2023-06-22T06:32:46;20.20;99.90
45066;DHT22;30830;53.704;10.004;2023-06-22T06:35:13;20.20;99.90
45066;DHT22;30830;53.704;10.004;2023-06-22T06:37:40;20.20;99.90
45066;DHT22;30830;53.704;10.004;2023-06-22T06:40:11;20.20;99.90
45066;DHT22;30830;53.704;10.004;2023-06-22T06:42:42;20.20;99.90
45066;DHT22;30830;53.704;10.004;2023-06-22T06:45:19;20.20;99.90
45066;DHT22;30830;53.704;10.004;2023-06-22T06:47:48;20.20;99.90
45066;DHT22;30830;53.704;10.004;2023-06-22T06:50:17;20.20;99.90
45066;DHT22;30830;53.704;10.004;2023-06-22T06:52:43;20.40;99.90
45066;DHT22;30830;53.704;10.004;2023-06-22T06:55:09;20.50;99.90
45066;DHT22;30830;53.704;10.004;2023-06-22T06:57:38;20.60;99.90
45066;DHT22;30830;53.704;10.004;2023-06-22T07:00:09;20.60;99.90
45066;DHT22;30830;53.704;10.004;2023-06-22T07:02:38;20.60;99.90
45066;DHT22;30830;53.704;10.004;2023-06-22T07:05:05;20.60;99.90
45066;DHT22;30830;53.704;10.004;2023-06-22T07:07:31;20.60;99.90
45066;DHT22;30830;53.704;10.004;2023-06-22T07:09:57;20.80;99.90
45066;DHT22;30830;53.704;10.004;2023-06-22T07:12:22;20.90;99.90
45066;DHT22;30830;53.704;10.004;2023-06-22T07:14:48;21.10;99.90
45066;DHT22;30830;53.704;10.004;2023-06-22T07:17:14;21.40;99.90
45066;DHT22;30830;53.704;10.004;2023-06-22T07:19:39;21.60;99.90
45066;DHT22;30830;53.704;10.004;2023-06-22T07:22:05;21.80;99.90
45066;DHT22;30830;53.704;10.004;2023-06-22T07:24:31;22.00;99.90
45066;DHT22;30830;53.704;10.004;2023-06-22T07:26:58;22.10;99.90
45066;DHT22;30830;53.704;10.004;2023-06-22T07:29:24;22.30;99.90
45066;DHT22;30830;53.704;10.004;2023-06-22T07:31:50;22.30;99.90
45066;DHT22;30830;53.704;10.004;2023-06-22T07:34:21;22.40;99.90
45066;DHT22;30830;53.704;10.004;2023-06-22T07:36:47;22.50;99.90
45066;DHT22;30830;53.704;10.004;2023-06-22T07:39:13;22.70;99.90
45066;DHT22;30830;53.704;10.004;2023-06-22T07:41:40;22.80;99.90
45066;DHT22;30830;53.704;10.004;2023-06-22T07:44:08;23.00;99.90
45066;DHT22;30830;53.704;10.004;2023-06-22T07:46:34;23.10;99.90
45066;DHT22;30830;53.704;10.004;2023-06-22T07:48:59;23.30;99.90
45066;DHT22;30830;53.704;10.004;2023-06-22T07:51:26;23.30;99.90
45066;DHT22;30830;53.704;10.004;2023-06-22T07:53:52;23.10;99.90
45066;DHT22;30830;53.704;10.004;2023-06-22T07:56:17;23.10;99.90
45066;DHT22;30830;53.704;10.004;2023-06-22T07:58:45;23.10;99.90
45066;DHT22;30830;53.704;10.004;2023-06-22T08:01:11;23.10;99.90
45066;DHT22;30830;53.704;10.004;2023-06-22T08:03:37;23.00;99.90
45066;DHT22;30830;53.704;10.004;2023-06-22T08:06:03;23.00;99.90
45066;DHT22;30830;53.704;10.004;2023-06-22T08:08:28;23.00;99.90
45066;DHT22;30830;53.704;10.004;2023-06-22T08:10:54;23.00;99.90
45066;DHT22;30830;53.704;10.004;2023-06-22T08:13:20;23.10;99.90
45066;DHT22;30830;53.704;10.004;2023-06-22T08:15:46;23.00;99.90
45066;DHT22;30830;53.704;10.004;2023-06-22T08:18:11;23.10;99.90
45066;DHT22;30830;53.704;10.004;2023-06-22T08:20:37;23.20;99.90
45066;DHT22;30830;53.704;10.004;2023-06-22T08:23:02;23.30;99.90
45066;DHT22;30830;53.704;10.004;2023-06-22T08:25:32;23.40;99.90
45066;DHT22;30830;53.704;10.004;2023-06-22T08:27:58;23.40;99.90
45066;DHT22;30830;53.704;10.004;2023-06-22T08:30:23;23.50;99.90
45066;DHT22;30830;53.704;10.004;2023-06-22T08:32:49;23.60;99.90
45066;DHT22;30830;53.704;10.004;2023-06-22T08:35:15;23.70;99.90
45066;DHT22;30830;53.704;10.004;2023-06-22T08:37:40;23.90;99.90
45066;DHT22;30830;53.704;10.004;2023-06-22T08:40:08;23.90;99.90
45066;DHT22;30830;53.704;10.004;2023-06-22T08:42:39;24.00;99.90
45066;DHT22;30830;53.704;10.004;2023-06-22T08:45:06;24.10;99.90
45066;DHT22;30830;53.704;10.004;2023-06-22T08:47:31;24.30;99.90
45066;DHT22;30830;53.704;10.004;2023-06-22T08:49:57;24.50;99.90
45066;DHT22;30830;53.704;10.004;2023-06-22T08:52:23;24.70;99.70
45066;DHT22;30830;53.704;10.004;2023-06-22T08:54:49;25.00;99.50
45066;DHT22;30830;53.704;10.004;2023-06-22T08:57:15;25.20;98.30
45066;DHT22;30830;53.704;10.004;2023-06-22T08:59:41;25.20;97.40
45066;DHT22;30830;53.704;10.004;2023-06-22T09:02:07;25.40;97.60
45066;DHT22;30830;53.704;10.004;2023-06-22T09:04:32;25.50;98.50
45066;DHT22;30830;53.704;10.004;2023-06-22T09:07:03;25.70;97.40
45066;DHT22;30830;53.704;10.004;2023-06-22T09:09:28;25.90;96.90
45066;DHT22;30830;53.704;10.004;2023-06-22T09:11:54;26.00;96.30
45066;DHT22;30830;53.704;10.004;2023-06-22T09:14:20;26.10;95.40
45066;DHT22;30830;53.704;10.004;2023-06-22T09:16:45;26.10;95.20
45066;DHT22;30830;53.704;10.004;2023-06-22T09:19:11;26.10;96.10
45066;DHT22;30830;53.704;10.004;2023-06-22T09:21:37;26.10;96.30
45066;DHT22;30830;53.704;10.004;2023-06-22T09:24:02;26.10;96.10
45066;DHT22;30830;53.704;10.004;2023-06-22T09:26:29;26.20;95.10
45066;DHT22;30830;53.704;10.004;2023-06-22T09:28:54;26.30;94.90
45066;DHT22;30830;53.704;10.004;2023-06-22T09:31:20;26.40;94.50
45066;DHT22;30830;53.704;10.004;2023-06-22T09:33:54;26.50;95.40
45066;DHT22;30830;53.704;10.004;2023-06-22T09:36:20;26.60;94.70
45066;DHT22;30830;53.704;10.004;2023-06-22T09:38:47;26.70;94.20
45066;DHT22;30830;53.704;10.004;2023-06-22T09:41:12;26.80;93.80
45066;DHT22;30830;53.704;10.004;2023-06-22T09:43:38;26.80;94.40
45066;DHT22;30830;53.704;10.004;2023-06-22T09:46:03;26.80;94.10
45066;DHT22;30830;53.704;10.004;2023-06-22T09:48:29;26.80;94.40
45066;DHT22;30830;53.704;10.004;2023-06-22T09:50:55;26.70;93.80
45066;DHT22;30830;53.704;10.004;2023-06-22T09:53:21;26.70;94.40
45066;DHT22;30830;53.704;10.004;2023-06-22T09:55:47;26.80;94.50
45066;DHT22;30830;53.704;10.004;2023-06-22T09:58:12;26.90;94.10
45066;DHT22;30830;53.704;10.004;2023-06-22T10:00:38;27.00;94.50
45066;DHT22;30830;53.704;10.004;2023-06-22T10:03:04;27.10;94.60
45066;DHT22;30830;53.704;10.004;2023-06-22T10:05:29;27.10;93.80
45066;DHT22;30830;53.704;10.004;2023-06-22T10:07:55;27.10;92.70
45066;DHT22;30830;53.704;10.004;2023-06-22T10:10:20;26.90;93.30
45066;DHT22;30830;53.704;10.004;2023-06-22T10:12:47;26.90;93.70
45066;DHT22;30830;53.704;10.004;2023-06-22T10:15:14;27.10;93.20
45066;DHT22;30830;53.704;10.004;2023-06-22T10:17:39;27.10;93.70
45066;DHT22;30830;53.704;10.004;2023-06-22T10:20:06;27.30;93.50
45066;DHT22;30830;53.704;10.004;2023-06-22T10:22:38;27.00;92.40
45066;DHT22;30830;53.704;10.004;2023-06-22T10:25:03;26.70;93.40
45066;DHT22;30830;53.704;10.004;2023-06-22T10:27:29;26.40;92.90
45066;DHT22;30830;53.704;10.004;2023-06-22T10:29:54;26.30;94.00
45066;DHT22;30830;53.704;10.004;2023-06-22T10:32:20;26.40;94.10
45066;DHT22;30830;53.704;10.004;2023-06-22T10:34:45;26.40;94.30
45066;DHT22;30830;53.704;10.004;2023-06-22T10:37:11;26.70;93.90
45066;DHT22;30830;53.704;10.004;2023-06-22T10:39:36;26.80;93.80
45066;DHT22;30830;53.704;10.004;2023-06-22T10:42:02;26.80;93.70
45066;DHT22;30830;53.704;10.004;2023-06-22T10:44:28;26.80;94.30
45066;DHT22;30830;53.704;10.004;2023-06-22T10:46:53;26.80;93.90
45066;DHT22;30830;53.704;10.004;2023-06-22T10:49:19;26.80;94.50
45066;DHT22;30830;53.704;10.004;2023-06-22T10:51:44;26.70;93.20
45066;DHT22;30830;53.704;10.004;2023-06-22T10:54:10;26.50;93.90
45066;DHT22;30830;53.704;10.004;2023-06-22T10:56:39;26.60;94.20
45066;DHT22;30830;53.704;10.004;2023-06-22T10:59:05;26.60;94.20
45066;DHT22;30830;53.704;10.004;2023-06-22T11:01:30;26.60;94.10
45066;DHT22;30830;53.704;10.004;2023-06-22T11:03:57;26.70;94.30
45066;DHT22;30830;53.704;10.004;2023-06-22T11:06:22;26.80;94.30
45066;DHT22;30830;53.704;10.004;2023-06-22T11:08:48;26.90;94.60
45066;DHT22;30830;53.704;10.004;2023-06-22T11:11:14;26.90;94.00
45066;DHT22;30830;53.704;10.004;2023-06-22T11:13:42;27.10;94.30
45066;DHT22;30830;53.704;10.004;2023-06-22T11:16:08;27.20;94.40
45066;DHT22;30830;53.704;10.004;2023-06-22T11:18:33;27.20;93.80
45066;DHT22;30830;53.704;10.004;2023-06-22T11:20:59;27.00;93.70
45066;DHT22;30830;53.704;10.004;2023-06-22T11:23:24;26.70;93.00
45066;DHT22;30830;53.704;10.004;2023-06-22T11:25:51;26.60;94.00
45066;DHT22;30830;53.704;10.004;2023-06-22T11:28:17;26.70;94.50
45066;DHT22;30830;53.704;10.004;2023-06-22T11:30:42;26.90;94.50
45066;DHT22;30830;53.704;10.004;2023-06-22T11:33:08;27.00;93.60
45066;DHT22;30830;53.704;10.004;2023-06-22T11:35:33;27.20;94.10
45066;DHT22;30830;53.704;10.004;2023-06-22T11:37:59;27.30;93.80
45066;DHT22;30830;53.704;10.004;2023-06-22T11:40:25;27.40;93.60
45066;DHT22;30830;53.704;10.004;2023-06-22T11:42:50;27.50;93.80
45066;DHT22;30830;53.704;10.004;2023-06-22T11:45:16;27.50;93.40
45066;DHT22;30830;53.704;10.004;2023-06-22T11:47:43;27.50;93.80
45066;DHT22;30830;53.704;10.004;2023-06-22T11:50:09;27.60;93.70
45066;DHT22;30830;53.704;10.004;2023-06-22T11:52:34;27.60;93.30
45066;DHT22;30830;53.704;10.004;2023-06-22T11:55:01;27.60;92.90
45066;DHT22;30830;53.704;10.004;2023-06-22T11:57:29;27.60;92.80
45066;DHT22;30830;53.704;10.004;2023-06-22T11:59:55;27.60;93.20
45066;DHT22;30830;53.704;10.004;2023-06-22T12:02:20;27.60;93.10
45066;DHT22;30830;53.704;10.004;2023-06-22T12:04:46;27.70;93.10
45066;DHT22;30830;53.704;10.004;2023-06-22T12:07:12;27.70;92.90
45066;DHT22;30830;53.704;10.004;2023-06-22T12:09:37;27.60;93.40
45066;DHT22;30830;53.704;10.004;2023-06-22T12:12:03;27.60;93.50
45066;DHT22;30830;53.704;10.004;2023-06-22T12:14:29;27.60;93.70
45066;DHT22;30830;53.704;10.004;2023-06-22T12:16:54;27.80;93.50
45066;DHT22;30830;53.704;10.004;2023-06-22T12:19:20;28.00;92.70
45066;DHT22;30830;53.704;10.004;2023-06-22T12:21:46;28.10;92.30
45066;DHT22;30830;53.704;10.004;2023-06-22T12:24:11;28.10;92.40
45066;DHT22;30830;53.704;10.004;2023-06-22T12:26:37;28.10;92.90
45066;DHT22;30830;53.704;10.004;2023-06-22T12:29:02;28.20;92.50
45066;DHT22;30830;53.704;10.004;2023-06-22T12:31:28;28.10;92.20
45066;DHT22;30830;53.704;10.004;2023-06-22T12:33:53;28.00;92.00
45066;DHT22;30830;53.704;10.004;2023-06-22T12:36:19;27.90;92.30
45066;DHT22;30830;53.704;10.004;2023-06-22T12:38:45;27.80;92.60
45066;DHT22;30830;53.704;10.004;2023-06-22T12:41:10;27.70;92.70
45066;DHT22;30830;53.704;10.004;2023-06-22T12:43:36;27.60;92.90
45066;DHT22;30830;53.704;10.004;2023-06-22T12:46:01;27.60;92.60
45066;DHT22;30830;53.704;10.004;2023-06-22T12:48:27;27.70;93.30
45066;DHT22;30830;53.704;10.004;2023-06-22T12:50:53;27.90;93.60
45066;DHT22;30830;53.704;10.004;2023-06-22T12:53:18;28.00;92.70
45066;DHT22;30830;53.704;10.004;2023-06-22T12:55:44;28.10;92.90
45066;DHT22;30830;53.704;10.004;2023-06-22T12:58:10;28.10;92.50
45066;DHT22;30830;53.704;10.004;2023-06-22T13:00:35;28.00;92.00
45066;DHT22;30830;53.704;10.004;2023-06-22T13:03:01;28.00;91.20
45066;DHT22;30830;53.704;10.004;2023-06-22T13:05:26;28.10;92.00
45066;DHT22;30830;53.704;10.004;2023-06-22T13:07:55;28.20;92.30
45066;DHT22;30830;53.704;10.004;2023-06-22T13:10:20;28.40;92.30
45066;DHT22;30830;53.704;10.004;2023-06-22T13:12:46;28.50;91.80
45066;DHT22;30830;53.704;10.004;2023-06-22T13:15:12;28.50;91.80
45066;DHT22;30830;53.704;10.004;2023-06-22T13:17:37;28.60;91.30
45066;DHT22;30830;53.704;10.004;2023-06-22T13:20:03;28.70;91.00
45066;DHT22;30830;53.704;10.004;2023-06-22T13:22:31;28.70;91.00
45066;DHT22;30830;53.704;10.004;2023-06-22T13:24:58;28.80;91.30
45066;DHT22;30830;53.704;10.004;2023-06-22T13:27:24;29.00;91.10
45066;DHT22;30830;53.704;10.004;2023-06-22T13:29:50;29.20;91.00
45066;DHT22;30830;53.704;10.004;2023-06-22T13:32:16;29.30;90.70
45066;DHT22;30830;53.704;10.004;2023-06-22T13:34:42;29.40;90.00
45066;DHT22;30830;53.704;10.004;2023-06-22T13:37:08;29.30;90.50
45066;DHT22;30830;53.704;10.004;2023-06-22T13:39:34;29.50;90.70
45066;DHT22;30830;53.704;10.004;2023-06-22T13:41:59;29.60;90.40
45066;DHT22;30830;53.704;10.004;2023-06-22T13:44:25;29.60;91.10
45066;DHT22;30830;53.704;10.004;2023-06-22T13:46:56;29.70;90.60
45066;DHT22;30830;53.704;10.004;2023-06-22T13:49:22;29.80;90.20
45066;DHT22;30830;53.704;10.004;2023-06-22T13:51:48;29.80;89.70
45066;DHT22;30830;53.704;10.004;2023-06-22T13:54:14;29.70;90.10
45066;DHT22;30830;53.704;10.004;2023-06-22T13:56:40;29.60;90.60
45066;DHT22;30830;53.704;10.004;2023-06-22T13:59:05;29.60;90.70
45066;DHT22;30830;53.704;10.004;2023-06-22T14:01:34;29.40;90.50
45066;DHT22;30830;53.704;10.004;2023-06-22T14:04:00;29.40;90.30
45066;DHT22;30830;53.704;10.004;2023-06-22T14:06:27;29.30;90.40
45066;DHT22;30830;53.704;10.004;2023-06-22T14:08:53;29.30;90.60
45066;DHT22;30830;53.704;10.004;2023-06-22T14:11:18;29.20;90.60
45066;DHT22;30830;53.704;10.004;2023-06-22T14:13:44;29.20;90.60
45066;DHT22;30830;53.704;10.004;2023-06-22T14:16:10;29.10;90.50
45066;DHT22;30830;53.704;10.004;2023-06-22T14:18:35;29.10;90.40
45066;DHT22;30830;53.704;10.004;2023-06-22T14:21:01;29.00;90.40
45066;DHT22;30830;53.704;10.004;2023-06-22T14:23:27;29.00;90.70
45066;DHT22;30830;53.704;10.004;2023-06-22T14:25:52;29.00;90.90
45066;DHT22;30830;53.704;10.004;2023-06-22T14:28:18;28.90;90.40
45066;DHT22;30830;53.704;10.004;2023-06-22T14:30:44;28.90;90.80
45066;DHT22;30830;53.704;10.004;2023-06-22T14:33:11;28.90;91.00
45066;DHT22;30830;53.704;10.004;2023-06-22T14:35:36;29.00;90.90
45066;DHT22;30830;53.704;10.004;2023-06-22T14:38:02;29.00;91.00
45066;DHT22;30830;53.704;10.004;2023-06-22T14:40:30;29.10;90.60
45066;DHT22;30830;53.704;10.004;2023-06-22T14:42:56;29.10;90.50
45066;DHT22;30830;53.704;10.004;2023-06-22T14:45:22;29.00;90.40
45066;DHT22;30830;53.704;10.004;2023-06-22T14:47:48;29.00;90.50
45066;DHT22;30830;53.704;10.004;2023-06-22T14:50:48;29.00;90.40
45066;DHT22;30830;53.704;10.004;2023-06-22T14:53:14;28.90;89.60
45066;DHT22;30830;53.704;10.004;2023-06-22T14:55:40;28.80;90.10
45066;DHT22;30830;53.704;10.004;2023-06-22T14:58:06;28.70;90.10
45066;DHT22;30830;53.704;10.004;2023-06-22T15:00:31;28.60;90.90
45066;DHT22;30830;53.704;10.004;2023-06-22T15:02:57;28.60;90.80
45066;DHT22;30830;53.704;10.004;2023-06-22T15:05:24;28.50;90.40
45066;DHT22;30830;53.704;10.004;2023-06-22T15:07:52;28.40;90.80
45066;DHT22;30830;53.704;10.004;2023-06-22T15:10:18;28.30;90.70
45066;DHT22;30830;53.704;10.004;2023-06-22T15:12:44;28.30;90.80
45066;DHT22;30830;53.704;10.004;2023-06-22T15:15:10;28.20;90.80
45066;DHT22;30830;53.704;10.004;2023-06-22T15:17:35;28.10;91.20
45066;DHT22;30830;53.704;10.004;2023-06-22T15:20:02;28.00;90.90
45066;DHT22;30830;53.704;10.004;2023-06-22T15:22:30;28.00;91.40